createdAt,value
2022-12-15T00:04:53.389Z,54.83
2022-12-15T00:10:33.084Z,59.50
2022-12-15T00:16:12.385Z,53.60
2022-12-15T00:21:51.761Z,55.92
2022-12-15T00:27:31.022Z,50.42
2022-12-15T00:33:10.630Z,51.92
2022-12-15T00:38:44.238Z,56.72
2022-12-15T00:44:05.316Z,56.00
2022-12-15T00:49:47.336Z,56.78
2022-12-15T00:55:27.202Z,56.13
2022-12-15T01:01:06.614Z,48.83
2022-12-15T01:06:45.732Z,35.80
2022-12-15T01:12:25.135Z,52.42
2022-12-15T01:18:04.618Z,52.20
2022-12-15T01:23:26.220Z,58.90
2022-12-15T01:28:47.065Z,50.53
2022-12-15T01:34:07.796Z,31.05
2022-12-15T01:39:48.319Z,43.67
2022-12-15T01:45:24.376Z,40.50
2022-12-15T01:51:31.818Z,43.10
2022-12-15T01:57:03.129Z,41.83
2022-12-15T02:02:27.104Z,47.03
2022-12-15T02:07:48.231Z,40.13
2022-12-15T02:13:29.080Z,43.22
2022-12-15T02:19:34.396Z,41.33
2022-12-15T02:25:11.543Z,41.42
2022-12-15T02:30:45.020Z,41.72
2022-12-15T02:36:47.654Z,46.75
2022-12-15T02:42:10.767Z,40.80
2022-12-15T02:47:46.324Z,43.30
2022-12-15T02:53:10.501Z,44.25
2022-12-15T02:58:47.025Z,37.28
2022-12-15T03:04:10.330Z,34.67
2022-12-15T03:09:31.936Z,40.80
2022-12-15T03:14:52.463Z,43.47
2022-12-15T03:20:13.293Z,41.28
2022-12-15T03:25:33.959Z,41.50
2022-12-15T03:30:54.720Z,41.50
2022-12-15T03:36:15.322Z,45.67
2022-12-15T03:41:36.143Z,46.83
2022-12-15T03:47:02.775Z,41.03
2022-12-15T03:52:24.236Z,40.85
2022-12-15T03:57:45.284Z,43.30
2022-12-15T04:03:06.275Z,39.88
2022-12-15T04:08:27.046Z,45.40
2022-12-15T04:13:48.040Z,43.05
2022-12-15T04:19:27.679Z,38.17
2022-12-15T04:25:06.929Z,42.85
2022-12-15T04:30:46.246Z,45.13
2022-12-15T04:36:29.000Z,42.20
2022-12-15T04:42:08.814Z,41.45
2022-12-15T04:47:47.936Z,35.03
2022-12-15T04:53:33.555Z,41.90
2022-12-15T04:59:13.522Z,54.00
2022-12-15T05:04:52.788Z,58.47
2022-12-15T05:10:32.032Z,72.68
2022-12-15T05:16:11.792Z,66.30
2022-12-15T05:21:51.048Z,54.80
2022-12-15T05:27:30.313Z,62.67
2022-12-15T05:32:51.059Z,71.68
2022-12-15T05:38:11.726Z,66.13
2022-12-15T05:43:32.605Z,60.30
2022-12-15T05:48:53.512Z,51.47
2022-12-15T05:54:17.747Z,50.03
2022-12-15T05:59:38.496Z,47.03
2022-12-15T06:04:59.160Z,49.55
2022-12-15T06:10:19.859Z,40.97
2022-12-15T06:15:40.741Z,51.78
2022-12-15T06:21:07.215Z,52.50
2022-12-15T06:26:34.467Z,51.10
2022-12-15T06:31:55.536Z,55.17
2022-12-15T06:37:16.594Z,47.55
2022-12-15T06:42:37.260Z,45.00
2022-12-15T06:48:01.467Z,52.40
2022-12-15T06:53:24.169Z,48.10
2022-12-15T06:58:44.793Z,43.22
2022-12-15T07:04:05.786Z,44.03
2022-12-15T07:09:27.645Z,53.80
2022-12-15T07:14:53.322Z,63.72
2022-12-15T07:20:14.361Z,55.95
2022-12-15T07:25:39.339Z,59.90
2022-12-15T07:31:05.728Z,66.03
2022-12-15T07:36:27.810Z,83.95
2022-12-15T07:41:48.471Z,71.50
2022-12-15T07:47:10.240Z,62.90
2022-12-15T07:52:31.204Z,78.05
2022-12-15T07:57:52.199Z,68.25
2022-12-15T08:03:13.117Z,65.18
2022-12-15T08:08:35.037Z,63.83
2022-12-15T08:14:05.610Z,68.65
2022-12-15T08:19:28.413Z,66.90
2022-12-15T08:24:49.051Z,73.18
2022-12-15T08:30:10.251Z,84.65
2022-12-15T08:35:55.818Z,66.35
2022-12-15T08:41:14.845Z,68.60
2022-12-15T08:46:35.837Z,108.97
2022-12-15T08:51:56.561Z,94.55
2022-12-15T08:57:17.209Z,92.95
2022-12-15T09:02:38.098Z,77.60
2022-12-15T09:08:04.603Z,53.80
2022-12-15T09:13:28.305Z,63.13
2022-12-15T09:18:52.823Z,68.97
2022-12-15T09:24:20.651Z,72.70
2022-12-15T09:29:46.961Z,61.13
2022-12-15T09:35:07.863Z,58.72
2022-12-15T09:40:28.948Z,59.58
2022-12-15T09:46:12.752Z,58.28
2022-12-15T09:51:38.837Z,47.17
2022-12-15T09:57:08.025Z,34.05
2022-12-15T10:02:47.282Z,45.10
2022-12-15T10:08:11.032Z,38.65
2022-12-15T10:13:40.612Z,45.42
2022-12-15T10:19:02.271Z,45.33
2022-12-15T10:24:59.695Z,42.35
2022-12-15T10:30:05.269Z,46.53
2022-12-15T10:35:30.418Z,40.42
2022-12-15T10:41:12.958Z,51.83
2022-12-15T10:46:33.832Z,45.28
2022-12-15T10:52:00.578Z,48.97
2022-12-15T10:57:31.561Z,41.75
2022-12-15T11:02:52.834Z,45.10
2022-12-15T11:08:17.469Z,55.75
2022-12-15T11:13:39.527Z,48.38
2022-12-15T11:19:36.425Z,43.53
2022-12-15T11:25:05.632Z,46.08
2022-12-15T11:30:33.226Z,29.53
2022-12-15T11:36:32.932Z,53.40
2022-12-15T11:42:25.186Z,42.45
2022-12-15T11:48:21.444Z,59.17
2022-12-15T11:53:56.252Z,50.85
2022-12-15T11:59:42.030Z,49.22
2022-12-15T12:05:27.070Z,53.40
2022-12-15T12:11:07.485Z,48.90
2022-12-15T12:16:54.870Z,51.95
2022-12-15T12:22:25.959Z,44.83
2022-12-15T12:27:55.433Z,44.55
2022-12-15T12:39:01.379Z,38.55
2022-12-15T12:44:37.585Z,46.22
2022-12-15T12:50:06.884Z,45.15
2022-12-15T12:55:41.394Z,39.67
2022-12-15T13:01:05.594Z,39.88
2022-12-15T13:06:35.337Z,50.40
2022-12-15T13:12:03.218Z,48.33
2022-12-15T13:17:42.029Z,59.35
2022-12-15T13:23:21.355Z,57.20
2022-12-15T13:28:45.945Z,82.07
2022-12-15T13:34:17.992Z,83.22
2022-12-15T13:39:54.963Z,67.38
2022-12-15T13:45:43.568Z,63.92
2022-12-15T13:51:18.382Z,71.63
2022-12-15T13:56:51.697Z,59.45
2022-12-15T14:02:29.965Z,69.32
2022-12-15T14:07:58.333Z,55.00
2022-12-15T14:13:24.559Z,64.15
2022-12-15T14:19:02.161Z,65.75
2022-12-15T14:24:40.837Z,77.35
2022-12-15T14:30:25.656Z,72.32
2022-12-15T14:35:50.230Z,87.57
2022-12-15T14:41:25.087Z,64.65
2022-12-15T14:46:47.605Z,66.38
2022-12-15T14:52:26.054Z,51.13
2022-12-15T14:57:47.925Z,56.42
2022-12-15T15:03:26.271Z,82.50
2022-12-15T15:08:52.702Z,105.43
2022-12-15T15:14:19.142Z,92.40
2022-12-15T15:19:53.418Z,99.43
2022-12-15T15:25:39.352Z,92.63
2022-12-15T15:31:06.916Z,68.93
2022-12-15T15:36:36.421Z,158.40
2022-12-15T15:41:57.190Z,94.20
2022-12-15T15:47:25.192Z,56.05
2022-12-15T15:52:45.952Z,61.80
2022-12-15T15:58:16.151Z,49.20
2022-12-15T16:03:37.257Z,47.88
2022-12-15T16:08:58.270Z,48.33
2022-12-15T16:14:19.106Z,56.03
2022-12-15T16:19:40.073Z,66.30
2022-12-15T16:25:01.892Z,56.03
2022-12-15T16:30:25.830Z,105.57
2022-12-15T16:35:49.944Z,52.17
2022-12-15T16:41:16.397Z,65.97
2022-12-15T16:46:37.779Z,51.22
2022-12-15T16:51:59.074Z,57.30
2022-12-15T16:57:20.343Z,47.72
2022-12-15T17:02:42.129Z,45.60
2022-12-15T17:08:06.617Z,56.50
2022-12-15T17:13:41.893Z,57.90
2022-12-15T17:19:04.438Z,64.32
2022-12-15T17:24:25.443Z,57.47
2022-12-15T17:29:46.488Z,43.03
2022-12-15T17:35:08.088Z,40.97
2022-12-15T17:40:29.599Z,46.97
2022-12-15T17:46:16.090Z,44.50
2022-12-15T17:51:37.588Z,55.33
2022-12-15T17:56:58.734Z,63.83
2022-12-15T18:02:19.760Z,48.63
2022-12-15T18:07:41.154Z,60.53
2022-12-15T18:13:02.334Z,84.93
2022-12-15T18:18:24.330Z,64.43
2022-12-15T18:23:47.553Z,50.75
2022-12-15T18:29:17.986Z,62.75
2022-12-15T18:34:38.957Z,63.80
2022-12-15T18:40:04.492Z,69.97
2022-12-15T18:45:28.416Z,50.28
2022-12-15T18:50:54.671Z,69.57
2022-12-15T18:56:18.169Z,63.30
2022-12-15T19:01:39.300Z,65.78
2022-12-15T19:07:06.604Z,59.25
2022-12-15T19:12:27.680Z,78.53
2022-12-15T19:18:06.849Z,62.50
2022-12-15T19:23:28.908Z,51.58
2022-12-15T19:28:49.956Z,56.33
2022-12-15T19:34:11.034Z,57.55
2022-12-15T19:39:35.203Z,50.08
2022-12-15T19:44:55.873Z,49.35
2022-12-15T19:50:25.197Z,45.30
2022-12-15T19:55:46.128Z,53.07
2022-12-15T20:01:10.864Z,64.80
2022-12-15T20:06:34.118Z,65.82
2022-12-15T20:11:55.129Z,71.80
2022-12-15T20:17:15.735Z,52.72
2022-12-15T20:22:36.530Z,62.67
2022-12-15T20:28:00.326Z,53.25
2022-12-15T20:33:21.183Z,65.80
2022-12-15T20:38:43.067Z,62.22
2022-12-15T20:44:07.036Z,69.75
2022-12-15T20:49:30.521Z,66.90
2022-12-15T20:54:53.210Z,66.85
2022-12-15T21:00:14.747Z,64.35
2022-12-15T21:05:35.473Z,52.35
2022-12-15T21:11:01.316Z,59.25
2022-12-15T21:16:28.144Z,58.75
2022-12-15T21:21:54.924Z,60.78
2022-12-15T21:27:19.244Z,53.70
2022-12-15T21:32:40.026Z,48.08
2022-12-15T21:38:01.173Z,53.88
2022-12-15T21:43:26.585Z,55.63
2022-12-15T21:49:06.187Z,63.63
2022-12-15T21:54:32.603Z,59.00
2022-12-15T21:59:53.179Z,51.40
2022-12-15T22:05:16.905Z,49.15
2022-12-15T22:10:39.308Z,44.25
2022-12-15T22:16:00.022Z,55.17
2022-12-15T22:21:20.752Z,51.10
2022-12-15T22:26:41.863Z,50.88
2022-12-15T22:32:05.768Z,48.85
2022-12-15T22:37:27.104Z,50.38
2022-12-15T22:42:53.633Z,49.55
2022-12-15T22:48:16.588Z,46.50
2022-12-15T22:53:37.283Z,50.67
2022-12-15T22:59:03.110Z,49.50
2022-12-15T23:04:24.921Z,45.05
2022-12-15T23:09:45.824Z,65.63
2022-12-15T23:15:25.503Z,57.10
2022-12-15T23:20:46.145Z,55.70
2022-12-15T23:26:07.026Z,48.83
2022-12-15T23:31:27.818Z,54.05
2022-12-15T23:36:48.441Z,51.67
2022-12-15T23:42:10.999Z,55.85
2022-12-15T23:47:31.977Z,46.90
2022-12-15T23:52:52.893Z,58.10
2022-12-15T23:58:15.559Z,41.25
